This is the latest recevied weather packets stored in our database for station/object N2XP-3. If no packets are shown the sender has not sent any weather packets the latest 10 day(s).
| Time | Temp. | Humidity | Pressure | Rain* | Wind** | Luminosity | Snow |
|---|---|---|---|---|---|---|---|
| 1777648323 | 15° C | 53% | 1010.7 hPa | 0 mm | 1.34 m/s, 198° | - | - |
| 1777648165 | 15° C | 53% | 1010.7 hPa | 0 mm | 1.34 m/s, 198° | - | - |
| 1777647986 | 15.56° C | 48% | 1010.8 hPa | 0 mm | 3.58 m/s, 56° | - | - |
| 1777647866 | 15.56° C | 48% | 1010.8 hPa | 0 mm | 3.58 m/s, 56° | - | - |
| 1777647656 | 16.11° C | 51% | 1010.8 hPa | 0 mm | 3.13 m/s, 68° | - | - |
| 1777647561 | 16.11° C | 51% | 1010.8 hPa | 0 mm | 3.13 m/s, 68° | - | - |
| 1777647393 | 15.56° C | 52% | 1010.8 hPa | 0 mm | 0.45 m/s, 136° | - | - |
| 1777647262 | 15.56° C | 52% | 1010.8 hPa | 0 mm | 0.45 m/s, 136° | - | - |
| 1777647060 | 15.56° C | 52% | 1010.8 hPa | 0 mm | 0.89 m/s, 354° | - | - |
| 1777646963 | 15.56° C | 52% | 1010.8 hPa | 0 mm | 0.89 m/s, 354° | - | - |
| 1777646780 | 15.56° C | 49% | 1010.8 hPa | 0 mm | 1.79 m/s, 256° | - | - |
| 1777646659 | 15.56° C | 49% | 1010.8 hPa | 0 mm | 1.79 m/s, 256° | - | - |
| 1777646503 | 17.22° C | 45% | 1010.8 hPa | 0 mm | 2.68 m/s, 58° | - | - |
| 1777646359 | 17.22° C | 45% | 1010.8 hPa | 0 mm | 2.68 m/s, 58° | - | - |
| 1777646219 | 17.78° C | 45% | 1010.8 hPa | 0 mm | 2.68 m/s, 207° | - | - |
| 1777646060 | 17.78° C | 45% | 1010.8 hPa | 0 mm | 2.68 m/s, 207° | - | - |
| 1777644549 | 17.78° C | 45% | 1010.8 hPa | 0 mm | 2.24 m/s, 86° | - | - |
| 1777644246 | 17.78° C | 45% | 1011 hPa | 0 mm | 1.79 m/s, 17° | - | - |
| 1777644083 | 17.78° C | 47% | 1011 hPa | 0 mm | 0 m/s | - | - |
| 1777643942 | 17.78° C | 47% | 1011 hPa | 0 mm | 0 m/s | - | - |
| 1777643391 | 16.67° C | 52% | 1010.9 hPa | 0 mm | 1.79 m/s, 252° | - | - |
| 1777643341 | 16.67° C | 52% | 1010.9 hPa | 0 mm | 1.79 m/s, 252° | - | - |
| 1777643141 | 15.56° C | 53% | 1010.7 hPa | 0 mm | 2.24 m/s, 311° | - | - |
| 1777643038 | 15.56° C | 53% | 1010.7 hPa | 0 mm | 2.24 m/s, 311° | - | - |
| 1777642440 | 16.11° C | 50% | 1010.9 hPa | 0 mm | 1.79 m/s, 45° | - | - |
* Rain latest hour (hover to see other rain measurements)
** Current wind speed in m/s (hover to see current wind gust speed)